Time;durP1;ratioP1;P1;durP2;ratioP2;P2;SDS_P1;SDS_P2;PMS_P1;PMS_P2;Temp;Humidity;BMP_temperature;BMP_pressure;BME280_temperature;BME280_humidity;BME280_pressure;Samples;Min_cycle;Max_cycle;Signal;HPM_P1;HPM_P2
2022/01/27 00:07:35;;;;;;;;;;;17.60;43.80;;;;;;5085611;28;42815;-78
2022/01/27 00:12:38;;;;;;;;;;;17.60;43.70;;;;;;5087021;28;43382;-80
2022/01/27 00:15:10;;;;;;;;;;;17.60;43.80;;;;;;5088815;28;42781;-80
2022/01/27 00:17:41;;;;;;;;;;;17.60;43.80;;;;;;5085192;28;45416;-78
2022/01/27 00:20:07;;;;;;;;;;;17.60;43.70;;;;;;5087250;28;42967;-79
2022/01/27 00:22:32;;;;;;;;;;;17.60;43.70;;;;;;5086655;28;43682;-76
2022/01/27 00:24:58;;;;;;;;;;;17.60;43.80;;;;;;5087042;27;42700;-80
2022/01/27 00:27:23;;;;;;;;;;;17.60;43.70;;;;;;5085777;28;44224;-80
2022/01/27 00:29:49;;;;;;;;;;;17.60;43.80;;;;;;5086494;28;43009;-79
2022/01/27 00:32:15;;;;;;;;;;;17.60;43.70;;;;;;5085711;27;42935;-79
2022/01/27 00:34:41;;;;;;;;;;;17.60;43.80;;;;;;5086558;28;42970;-79
2022/01/27 00:37:06;;;;;;;;;;;17.60;43.70;;;;;;5086541;28;43078;-79
2022/01/27 00:39:32;;;;;;;;;;;17.60;43.60;;;;;;5086801;27;42930;-75
2022/01/27 00:41:57;;;;;;;;;;;17.60;43.60;;;;;;5088608;27;43773;-80
2022/01/27 00:44:23;;;;;;;;;;;17.60;43.60;;;;;;5086480;28;42818;-78
2022/01/27 00:46:49;;;;;;;;;;;17.70;43.60;;;;;;5086496;27;42884;-77
2022/01/27 00:49:14;;;;;;;;;;;17.60;43.40;;;;;;5089072;27;42928;-78
2022/01/27 00:51:44;;;;;;;;;;;17.70;43.50;;;;;;5088171;28;42975;-78
2022/01/27 00:54:22;;;;;;;;;;;17.60;43.50;;;;;;5085885;27;43020;-76
2022/01/27 00:56:55;;;;;;;;;;;17.60;43.50;;;;;;5085552;27;43987;-74
2022/01/27 00:59:33;;;;;;;;;;;17.60;43.50;;;;;;5085617;27;42886;-78
2022/01/27 01:02:14;;;;;;;;;;;17.60;43.50;;;;;;5084957;27;43141;-80
2022/01/27 01:04:44;;;;;;;;;;;17.60;43.50;;;;;;5085288;28;42932;-78
2022/01/27 01:07:11;;;;;;;;;;;17.60;43.40;;;;;;5085692;27;43054;-80
2022/01/27 01:15:21;;;;;;;;;;;17.60;43.50;;;;;;5084943;28;42983;-80
2022/01/27 01:31:10;;;;;;;;;;;17.60;43.50;;;;;;5106014;27;42981;-78
2022/01/27 01:33:38;;;;;;;;;;;17.60;43.50;;;;;;5089864;27;43311;-79
2022/01/27 01:36:15;;;;;;;;;;;17.60;43.50;;;;;;5085174;27;42956;-79
2022/01/27 01:38:43;;;;;;;;;;;17.60;43.50;;;;;;5083367;28;45541;-80
2022/01/27 01:41:09;;;;;;;;;;;17.60;43.50;;;;;;5085310;27;43056;-76
2022/01/27 01:43:35;;;;;;;;;;;17.60;43.50;;;;;;5084680;27;42905;-79
2022/01/27 01:46:00;;;;;;;;;;;17.50;43.60;;;;;;5085221;27;43029;-79
2022/01/27 01:48:26;;;;;;;;;;;17.50;43.50;;;;;;5085302;27;42928;-79
2022/01/27 01:50:52;;;;;;;;;;;17.60;43.60;;;;;;5085194;27;42921;-79
2022/01/27 01:53:17;;;;;;;;;;;17.60;43.50;;;;;;5084730;27;42908;-80
2022/01/27 01:55:43;;;;;;;;;;;17.60;43.50;;;;;;5084805;27;42811;-80
2022/01/27 01:58:09;;;;;;;;;;;17.50;43.40;;;;;;5084610;28;43042;-77
2022/01/27 02:00:34;;;;;;;;;;;17.50;43.40;;;;;;5085023;27;42913;-79
2022/01/27 02:03:00;;;;;;;;;;;17.50;43.40;;;;;;5082834;27;42913;-79
2022/01/27 02:05:30;;;;;;;;;;;17.50;43.50;;;;;;5084421;27;42881;-80
2022/01/27 02:19:11;;;;;;;;;;;17.50;43.50;;;;;;5087905;28;42951;-79
2022/01/27 02:21:48;;;;;;;;;;;17.50;43.50;;;;;;5087679;27;42768;-79
2022/01/27 02:24:14;;;;;;;;;;;17.50;43.50;;;;;;5087078;27;43506;-80
2022/01/27 02:26:41;;;;;;;;;;;17.50;43.50;;;;;;5086837;27;42873;-79
2022/01/27 02:29:06;;;;;;;;;;;17.50;43.50;;;;;;5088093;28;43028;-80
2022/01/27 02:31:32;;;;;;;;;;;17.50;43.50;;;;;;5088320;27;42959;-80
2022/01/27 02:33:57;;;;;;;;;;;17.40;43.50;;;;;;5086465;28;45370;-79
2022/01/27 02:36:23;;;;;;;;;;;17.50;43.60;;;;;;5087477;27;43024;-79
2022/01/27 02:38:49;;;;;;;;;;;17.40;43.50;;;;;;5087107;28;42979;-80
2022/01/27 02:41:16;;;;;;;;;;;17.40;44.00;;;;;;5087915;27;42959;-80
2022/01/27 02:43:41;;;;;;;;;;;17.40;43.50;;;;;;5087802;27;43546;-79
2022/01/27 02:46:15;;;;;;;;;;;17.40;43.50;;;;;;5087564;27;42904;-77
2022/01/27 02:48:40;;;;;;;;;;;17.40;43.50;;;;;;5087949;27;42973;-80
2022/01/27 02:51:06;;;;;;;;;;;17.40;43.50;;;;;;5087357;27;43039;-80
2022/01/27 02:53:32;;;;;;;;;;;17.40;43.50;;;;;;5089333;28;43483;-72
2022/01/27 02:55:57;;;;;;;;;;;17.40;43.50;;;;;;5089357;28;42756;-76
2022/01/27 02:58:23;;;;;;;;;;;17.40;43.60;;;;;;5088007;27;42757;-77
2022/01/27 03:00:48;;;;;;;;;;;17.40;43.60;;;;;;5087646;27;42943;-78
2022/01/27 03:03:14;;;;;;;;;;;17.40;43.60;;;;;;5087396;27;42908;-79
2022/01/27 03:05:39;;;;;;;;;;;17.40;43.60;;;;;;5088135;28;43098;-79
2022/01/27 03:08:05;;;;;;;;;;;17.40;43.60;;;;;;5087900;27;42924;-81
2022/01/27 03:10:33;;;;;;;;;;;17.40;43.60;;;;;;5087537;27;42925;-80
2022/01/27 03:13:00;;;;;;;;;;;17.40;43.60;;;;;;5087576;27;42925;-80
2022/01/27 03:15:29;;;;;;;;;;;17.40;43.60;;;;;;5087223;27;42972;-80
2022/01/27 03:17:54;;;;;;;;;;;17.40;43.60;;;;;;5086903;27;43022;-80
2022/01/27 03:20:20;;;;;;;;;;;17.40;43.60;;;;;;5085927;27;42835;-79
2022/01/27 03:22:45;;;;;;;;;;;17.40;43.60;;;;;;5086797;27;42878;-78
2022/01/27 03:25:11;;;;;;;;;;;17.40;43.60;;;;;;5086703;27;42849;-79
2022/01/27 03:27:44;;;;;;;;;;;17.30;43.60;;;;;;5087138;27;42826;-80
2022/01/27 03:30:10;;;;;;;;;;;17.30;43.60;;;;;;5087941;27;43136;-80
2022/01/27 03:32:35;;;;;;;;;;;17.30;43.50;;;;;;5087222;28;42856;-80
2022/01/27 03:35:01;;;;;;;;;;;17.30;43.60;;;;;;5086897;28;43031;-78
2022/01/27 03:37:26;;;;;;;;;;;17.30;43.60;;;;;;5087206;27;42947;-79
2022/01/27 03:39:52;;;;;;;;;;;17.40;43.60;;;;;;5085486;28;42916;-81
2022/01/27 03:42:17;;;;;;;;;;;17.30;43.60;;;;;;5087331;27;42923;-80
2022/01/27 03:44:43;;;;;;;;;;;17.40;43.60;;;;;;5087097;27;42879;-80
2022/01/27 03:47:08;;;;;;;;;;;17.30;43.60;;;;;;5087043;27;42806;-80
2022/01/27 03:49:34;;;;;;;;;;;17.30;43.60;;;;;;5086799;28;42980;-80
2022/01/27 03:52:01;;;;;;;;;;;17.30;43.60;;;;;;5086530;28;44021;-80
2022/01/27 03:54:27;;;;;;;;;;;17.40;43.60;;;;;;5086420;27;42971;-81
2022/01/27 03:56:52;;;;;;;;;;;17.30;43.70;;;;;;5086916;27;42958;-80
2022/01/27 03:59:18;;;;;;;;;;;17.30;43.60;;;;;;5086695;27;42776;-79
2022/01/27 04:01:44;;;;;;;;;;;17.30;43.60;;;;;;5086607;27;42862;-79
2022/01/27 04:04:09;;;;;;;;;;;17.30;43.60;;;;;;5087080;27;42909;-79
2022/01/27 04:06:39;;;;;;;;;;;17.30;43.60;;;;;;5086901;27;42910;-80
2022/01/27 04:09:05;;;;;;;;;;;17.30;43.60;;;;;;5086323;27;42947;-80
2022/01/27 04:11:31;;;;;;;;;;;17.30;43.60;;;;;;5086667;27;43530;-80
2022/01/27 04:13:56;;;;;;;;;;;17.30;43.60;;;;;;5086639;27;42837;-79
2022/01/27 04:16:22;;;;;;;;;;;17.30;43.60;;;;;;5086695;27;42991;-79
2022/01/27 04:18:47;;;;;;;;;;;17.30;43.60;;;;;;5066971;28;42802;-78
2022/01/27 04:21:14;;;;;;;;;;;17.30;43.70;;;;;;5065834;28;42850;-80
2022/01/27 04:23:39;;;;;;;;;;;17.30;43.60;;;;;;5066300;28;42850;-80
2022/01/27 04:26:06;;;;;;;;;;;17.30;43.60;;;;;;5066196;28;43800;-80
2022/01/27 04:28:34;;;;;;;;;;;17.20;43.60;;;;;;5066284;28;43106;-80
2022/01/27 04:31:02;;;;;;;;;;;17.30;43.60;;;;;;5065664;28;43042;-80
2022/01/27 04:33:31;;;;;;;;;;;17.20;43.60;;;;;;5066094;28;42884;-78
2022/01/27 04:36:00;;;;;;;;;;;17.20;43.60;;;;;;5066226;28;43495;-80
2022/01/27 04:38:35;;;;;;;;;;;17.20;43.60;;;;;;5065325;28;43012;-80
2022/01/27 04:43:38;;;;;;;;;;;17.20;43.60;;;;;;5065321;28;42921;-80
2022/01/27 04:48:52;;;;;;;;;;;17.20;43.60;;;;;;5065913;28;42965;-80
2022/01/27 04:51:20;;;;;;;;;;;17.30;43.70;;;;;;5065949;27;43006;-79
2022/01/27 04:54:02;;;;;;;;;;;17.30;43.60;;;;;;5065603;28;42857;-80
2022/01/27 04:56:30;;;;;;;;;;;17.20;43.60;;;;;;5065231;28;42879;-80
2022/01/27 04:59:00;;;;;;;;;;;17.20;43.60;;;;;;5065214;28;42970;-79
2022/01/27 05:01:37;;;;;;;;;;;17.20;43.60;;;;;;5065111;28;43702;-80
2022/01/27 05:04:08;;;;;;;;;;;17.20;43.60;;;;;;5065128;28;42931;-80
2022/01/27 05:06:34;;;;;;;;;;;17.20;43.60;;;;;;5065008;28;42789;-79
2022/01/27 05:09:00;;;;;;;;;;;17.30;43.60;;;;;;5065542;28;42945;-80
2022/01/27 05:11:32;;;;;;;;;;;17.20;43.60;;;;;;5065172;28;43908;-79
2022/01/27 05:14:14;;;;;;;;;;;17.20;43.60;;;;;;5065330;28;42906;-76
2022/01/27 05:16:40;;;;;;;;;;;17.20;43.60;;;;;;5064993;28;44074;-79
2022/01/27 05:19:05;;;;;;;;;;;17.20;43.50;;;;;;5065209;28;43111;-79
2022/01/27 05:21:33;;;;;;;;;;;17.20;43.60;;;;;;5064937;28;42977;-75
2022/01/27 05:23:59;;;;;;;;;;;17.20;43.60;;;;;;5064794;28;42794;-74
2022/01/27 05:26:25;;;;;;;;;;;17.20;43.60;;;;;;5064111;28;43619;-75
2022/01/27 05:28:51;;;;;;;;;;;17.20;43.60;;;;;;5065132;28;42836;-79
2022/01/27 05:31:16;;;;;;;;;;;17.20;43.60;;;;;;5065171;28;42915;-75
2022/01/27 05:33:42;;;;;;;;;;;17.20;43.60;;;;;;5064559;28;42906;-74
2022/01/27 05:36:07;;;;;;;;;;;17.20;43.60;;;;;;5064698;28;42888;-75
2022/01/27 05:38:35;;;;;;;;;;;17.20;43.60;;;;;;5064595;28;43055;-76
2022/01/27 05:41:01;;;;;;;;;;;17.20;43.70;;;;;;5064776;28;43417;-79
2022/01/27 05:43:26;;;;;;;;;;;17.20;43.60;;;;;;5072474;28;42958;-80
2022/01/27 05:45:52;;;;;;;;;;;17.20;43.60;;;;;;5081738;28;43513;-79
2022/01/27 05:48:17;;;;;;;;;;;17.20;43.60;;;;;;5078921;27;43194;-79
2022/01/27 05:50:43;;;;;;;;;;;17.20;43.60;;;;;;5068942;28;42978;-80
2022/01/27 05:53:08;;;;;;;;;;;17.20;43.60;;;;;;5065237;28;42995;-75
2022/01/27 05:55:34;;;;;;;;;;;17.20;43.60;;;;;;5064594;28;42940;-79
2022/01/27 05:57:59;;;;;;;;;;;17.10;43.60;;;;;;5063146;28;43286;-75
2022/01/27 06:00:25;;;;;;;;;;;17.20;43.70;;;;;;5063792;28;43016;-76
2022/01/27 06:02:51;;;;;;;;;;;17.20;43.60;;;;;;5064591;28;43001;-76
2022/01/27 06:05:16;;;;;;;;;;;17.20;43.70;;;;;;5064177;28;43667;-74
2022/01/27 06:07:42;;;;;;;;;;;17.20;43.60;;;;;;5074423;28;42918;-75
2022/01/27 06:10:08;;;;;;;;;;;17.20;43.70;;;;;;5079156;28;42987;-77
2022/01/27 06:12:33;;;;;;;;;;;17.20;43.70;;;;;;5077364;28;43194;-79
2022/01/27 06:14:59;;;;;;;;;;;17.20;43.70;;;;;;5079824;28;43689;-78
2022/01/27 06:17:24;;;;;;;;;;;17.20;43.70;;;;;;5079554;27;42901;-81
2022/01/27 06:19:54;;;;;;;;;;;17.20;43.70;;;;;;5078127;28;42970;-78
2022/01/27 06:22:20;;;;;;;;;;;17.10;43.70;;;;;;5074274;28;43112;-77
2022/01/27 06:24:45;;;;;;;;;;;17.20;43.70;;;;;;5073660;27;42936;-76
2022/01/27 06:27:11;;;;;;;;;;;17.10;43.70;;;;;;5081690;28;43012;-78
2022/01/27 06:29:37;;;;;;;;;;;17.10;43.70;;;;;;5076255;28;43648;-73
2022/01/27 06:32:03;;;;;;;;;;;17.20;43.90;;;;;;5076107;27;43020;-81
2022/01/27 06:34:28;;;;;;;;;;;17.10;43.90;;;;;;5081075;28;43044;-78
2022/01/27 06:36:54;;;;;;;;;;;17.10;43.80;;;;;;5077629;28;43035;-77
2022/01/27 06:39:20;;;;;;;;;;;17.10;44.00;;;;;;5076062;27;42994;-78
2022/01/27 06:41:45;;;;;;;;;;;17.10;44.00;;;;;;5074564;27;43051;-78
2022/01/27 06:44:11;;;;;;;;;;;16.50;44.40;;;;;;5077358;27;43343;-79
2022/01/27 06:46:37;;;;;;;;;;;17.10;43.90;;;;;;5075479;28;42960;-79
2022/01/27 06:49:03;;;;;;;;;;;17.10;44.00;;;;;;5075926;28;42894;-78
2022/01/27 06:51:29;;;;;;;;;;;17.10;44.70;;;;;;5076336;28;43077;-79
2022/01/27 06:53:55;;;;;;;;;;;17.50;44.70;;;;;;5074666;27;43798;-79
2022/01/27 06:56:21;;;;;;;;;;;17.10;44.30;;;;;;5081046;28;42896;-79
2022/01/27 06:58:46;;;;;;;;;;;17.10;44.30;;;;;;5079715;28;42873;-79
2022/01/27 07:01:12;;;;;;;;;;;17.10;44.00;;;;;;5077614;28;42972;-79
2022/01/27 07:03:37;;;;;;;;;;;17.10;44.10;;;;;;5078653;28;43491;-81
2022/01/27 07:06:03;;;;;;;;;;;17.10;44.20;;;;;;5076010;27;42980;-80
2022/01/27 07:08:28;;;;;;;;;;;17.10;42.70;;;;;;5081530;27;43043;-78
2022/01/27 07:10:54;;;;;;;;;;;16.90;38.90;;;;;;5080978;28;42901;-76
2022/01/27 07:13:19;;;;;;;;;;;15.60;37.70;;;;;;5079382;27;42958;-77
2022/01/27 07:15:45;;;;;;;;;;;15.20;35.90;;;;;;5085412;27;43009;-76
2022/01/27 07:18:10;;;;;;;;;;;13.80;36.80;;;;;;5075567;28;43444;-77
2022/01/27 07:20:36;;;;;;;;;;;13.20;38.20;;;;;;5069196;28;43083;-79
2022/01/27 07:23:02;;;;;;;;;;;12.70;38.60;;;;;;5075587;27;44520;-79
2022/01/27 07:25:28;;;;;;;;;;;12.60;39.20;;;;;;5077257;28;43206;-78
2022/01/27 07:27:53;;;;;;;;;;;12.40;39.10;;;;;;5078317;28;43058;-77
2022/01/27 07:30:19;;;;;;;;;;;13.00;38.50;;;;;;5086671;27;43096;-78
2022/01/27 07:32:45;;;;;;;;;;;12.50;38.60;;;;;;5086101;28;43973;-78
2022/01/27 07:35:11;;;;;;;;;;;12.20;39.10;;;;;;5081920;28;43342;-77
2022/01/27 07:37:37;;;;;;;;;;;11.90;39.40;;;;;;5075468;28;43222;-78
2022/01/27 07:40:03;;;;;;;;;;;11.80;40.00;;;;;;5075970;27;42854;-79
2022/01/27 07:42:29;;;;;;;;;;;12.60;39.00;;;;;;5076873;27;42989;-78
2022/01/27 07:44:54;;;;;;;;;;;12.50;39.20;;;;;;5074085;27;43150;-78
2022/01/27 07:47:20;;;;;;;;;;;12.10;39.60;;;;;;5075577;28;43275;-78
2022/01/27 07:49:45;;;;;;;;;;;11.90;40.10;;;;;;5075791;28;43070;-77
2022/01/27 07:52:11;;;;;;;;;;;11.40;40.70;;;;;;5075399;27;42940;-78
2022/01/27 07:54:37;;;;;;;;;;;11.50;40.90;;;;;;5077249;28;42957;-78
2022/01/27 07:57:03;;;;;;;;;;;11.40;41.40;;;;;;5074648;28;43681;-76
2022/01/27 07:59:28;;;;;;;;;;;11.40;41.60;;;;;;5075561;27;43010;-77
2022/01/27 08:01:54;;;;;;;;;;;11.70;41.50;;;;;;5078392;28;42900;-78
2022/01/27 08:04:19;;;;;;;;;;;11.70;41.20;;;;;;5080008;27;43080;-77
2022/01/27 08:06:45;;;;;;;;;;;12.10;41.20;;;;;;5074194;27;43143;-78
2022/01/27 08:09:10;;;;;;;;;;;12.10;40.60;;;;;;5079440;28;42908;-78
2022/01/27 08:11:36;;;;;;;;;;;11.30;41.80;;;;;;5085323;27;43472;-77
2022/01/27 08:14:01;;;;;;;;;;;11.30;42.30;;;;;;5076781;27;43387;-77
2022/01/27 08:16:27;;;;;;;;;;;10.90;43.40;;;;;;5075956;28;43037;-77
2022/01/27 08:18:53;;;;;;;;;;;11.10;43.70;;;;;;5073521;27;43001;-79
2022/01/27 08:21:20;;;;;;;;;;;11.20;43.60;;;;;;5072709;27;63287;-77
2022/01/27 08:23:46;;;;;;;;;;;11.60;42.80;;;;;;5076566;28;42993;-77
2022/01/27 08:26:15;;;;;;;;;;;11.80;42.10;;;;;;5072931;27;43018;-76
2022/01/27 08:28:56;;;;;;;;;;;11.40;43.10;;;;;;5074909;27;43050;-77
2022/01/27 08:31:22;;;;;;;;;;;11.60;43.00;;;;;;5075134;28;43687;-77
2022/01/27 08:33:48;;;;;;;;;;;11.60;43.60;;;;;;5076944;27;43689;-75
2022/01/27 08:36:15;;;;;;;;;;;11.20;44.30;;;;;;5084145;27;43683;-77
2022/01/27 08:38:43;;;;;;;;;;;10.90;46.80;;;;;;5076769;27;43002;-78
2022/01/27 08:41:09;;;;;;;;;;;11.20;45.50;;;;;;5075616;28;42998;-74
2022/01/27 08:43:35;;;;;;;;;;;11.50;45.70;;;;;;5074991;28;43366;-75
2022/01/27 08:46:01;;;;;;;;;;;11.60;45.30;;;;;;5074051;28;43623;-77
2022/01/27 08:48:28;;;;;;;;;;;11.70;45.40;;;;;;5076140;28;43096;-74
2022/01/27 08:51:05;;;;;;;;;;;11.20;46.10;;;;;;5073727;28;43414;-76
2022/01/27 08:53:34;;;;;;;;;;;11.70;45.60;;;;;;5075972;28;42754;-75
2022/01/27 08:55:59;;;;;;;;;;;11.90;45.20;;;;;;5067616;27;44290;-76
2022/01/27 08:58:25;;;;;;;;;;;12.00;45.20;;;;;;5065029;27;43077;-78
2022/01/27 09:00:51;;;;;;;;;;;12.30;45.30;;;;;;5065290;28;43508;-78
2022/01/27 09:03:17;;;;;;;;;;;11.90;45.50;;;;;;5064965;28;42935;-79
2022/01/27 09:05:44;;;;;;;;;;;12.10;45.00;;;;;;5062433;28;45712;-80
2022/01/27 09:08:09;;;;;;;;;;;11.20;44.30;;;;;;5068164;28;42813;-81
2022/01/27 09:10:35;;;;;;;;;;;12.40;44.20;;;;;;5068659;28;42843;-79
2022/01/27 09:13:01;;;;;;;;;;;12.50;44.30;;;;;;5067989;28;42990;-80
2022/01/27 09:15:27;;;;;;;;;;;12.30;44.50;;;;;;5067506;28;43609;-80
2022/01/27 09:17:53;;;;;;;;;;;12.30;44.80;;;;;;5065359;28;43021;-80
2022/01/27 09:20:19;;;;;;;;;;;12.30;44.10;;;;;;5065939;28;42806;-81
2022/01/27 09:22:44;;;;;;;;;;;12.50;43.90;;;;;;5066326;28;42893;-81
2022/01/27 09:25:41;;;;;;;;;;;12.40;44.40;;;;;;5064010;28;44307;-81
2022/01/27 09:27:58;;;;;;;;;;;12.40;43.90;;;;;;5065076;28;43022;-81
2022/01/27 09:30:24;;;;;;;;;;;12.50;44.00;;;;;;5065353;28;44615;-82
2022/01/27 09:32:50;;;;;;;;;;;12.30;44.80;;;;;;5064778;28;42951;-81
2022/01/27 09:35:16;;;;;;;;;;;12.20;45.90;;;;;;5065066;28;43797;-80
2022/01/27 09:37:42;;;;;;;;;;;;;;;;;;5064987;28;43152;-75
2022/01/27 09:40:08;;;;;;;;;;;11.70;45.90;;;;;;5063209;28;44578;-76
2022/01/27 09:42:35;;;;;;;;;;;11.40;46.30;;;;;;5063475;28;43148;-78
2022/01/27 09:45:03;;;;;;;;;;;11.80;44.90;;;;;;5065400;27;42893;-76
2022/01/27 09:47:31;;;;;;;;;;;11.70;45.40;;;;;;5065113;28;42865;-75
2022/01/27 09:50:07;;;;;;;;;;;11.30;46.30;;;;;;5064978;28;43400;-76
2022/01/27 09:52:33;;;;;;;;;;;11.00;47.20;;;;;;5064972;28;43011;-75
2022/01/27 09:54:59;;;;;;;;;;;11.40;46.50;;;;;;5064327;28;43501;-74
2022/01/27 09:57:24;;;;;;;;;;;11.50;45.70;;;;;;5064553;28;43565;-75
2022/01/27 09:59:50;;;;;;;;;;;12.00;44.80;;;;;;5064650;28;42972;-75
2022/01/27 10:02:16;;;;;;;;;;;12.20;44.40;;;;;;5065524;28;42899;-77
2022/01/27 10:04:47;;;;;;;;;;;11.90;44.50;;;;;;5065232;28;42764;-74
2022/01/27 10:07:15;;;;;;;;;;;12.20;44.10;;;;;;5065223;28;43029;-77
2022/01/27 10:09:54;;;;;;;;;;;16.40;46.80;;;;;;5064063;27;44299;-74
2022/01/27 10:12:23;;;;;;;;;;;12.20;44.20;;;;;;5064824;28;42978;-75
2022/01/27 10:14:56;;;;;;;;;;;12.60;44.30;;;;;;5064746;28;43520;-75
2022/01/27 10:17:21;;;;;;;;;;;12.00;44.40;;;;;;5064895;28;43557;-77
2022/01/27 10:19:52;;;;;;;;;;;11.60;45.80;;;;;;5065623;28;43872;-74
2022/01/27 10:22:18;;;;;;;;;;;11.30;46.40;;;;;;5065765;28;42820;-74
2022/01/27 10:24:44;;;;;;;;;;;11.30;46.80;;;;;;5064657;27;43169;-75
2022/01/27 10:32:52;;;;;;;;;;;12.00;44.60;;;;;;5068587;28;42927;-74
2022/01/27 10:35:20;;;;;;;;;;;14.90;46.20;;;;;;5068138;28;43733;-75
2022/01/27 10:37:51;;;;;;;;;;;11.30;45.60;;;;;;5068898;28;43184;-80
2022/01/27 10:40:27;;;;;;;;;;;11.70;44.90;;;;;;5066400;28;45529;-80
2022/01/27 10:43:04;;;;;;;;;;;11.90;44.50;;;;;;5066114;28;43106;-76
2022/01/27 10:45:30;;;;;;;;;;;11.70;44.80;;;;;;5066065;28;45064;-74
2022/01/27 10:48:07;;;;;;;;;;;11.60;45.00;;;;;;5067573;28;43003;-80
2022/01/27 10:50:49;;;;;;;;;;;11.90;44.30;;;;;;5067468;28;43561;-75
2022/01/27 10:53:15;;;;;;;;;;;11.60;45.10;;;;;;5066211;27;42952;-75
2022/01/27 10:55:41;;;;;;;;;;;11.80;46.20;;;;;;5068241;28;43833;-76
2022/01/27 10:58:25;;;;;;;;;;;11.80;44.80;;;;;;5068126;28;43011;-75
2022/01/27 11:00:58;;;;;;;;;;;12.90;45.10;;;;;;5066995;28;43421;-76
2022/01/27 11:03:25;;;;;;;;;;;11.80;44.30;;;;;;5066222;28;43237;-76
2022/01/27 11:05:51;;;;;;;;;;;11.90;45.00;;;;;;5067665;28;43478;-76
2022/01/27 11:08:20;;;;;;;;;;;11.80;45.30;;;;;;5067566;28;42890;-75
2022/01/27 11:10:48;;;;;;;;;;;11.80;44.30;;;;;;5067296;28;43396;-75
2022/01/27 11:13:15;;;;;;;;;;;11.60;44.60;;;;;;5067571;28;42837;-76
2022/01/27 11:15:42;;;;;;;;;;;11.90;44.40;;;;;;5067325;28;42924;-76
2022/01/27 11:18:09;;;;;;;;;;;12.00;44.30;;;;;;5066827;28;43218;-80
2022/01/27 11:20:50;;;;;;;;;;;11.90;44.30;;;;;;5066658;28;43070;-75
2022/01/27 11:25:52;;;;;;;;;;;12.00;44.30;;;;;;5067156;28;43545;-75
2022/01/27 11:28:18;;;;;;;;;;;11.90;44.50;;;;;;5067154;28;43031;-75
2022/01/27 11:31:04;;;;;;;;;;;12.00;44.50;;;;;;5067428;28;43416;-75
2022/01/27 11:33:31;;;;;;;;;;;11.50;45.60;;;;;;5075548;27;44042;-74
2022/01/27 11:36:14;;;;;;;;;;;11.30;46.60;;;;;;5085797;27;42859;-75
2022/01/27 11:38:42;;;;;;;;;;;11.10;47.10;;;;;;5086596;27;42998;-76
2022/01/27 11:41:27;;;;;;;;;;;11.40;46.30;;;;;;5085368;27;43042;-74
2022/01/27 11:44:13;;;;;;;;;;;11.60;46.10;;;;;;5086056;27;42880;-74
2022/01/27 11:46:38;;;;;;;;;;;11.80;45.70;;;;;;5086690;28;42972;-75
2022/01/27 11:49:04;;;;;;;;;;;11.90;45.50;;;;;;5087073;27;42961;-75
2022/01/27 11:51:29;;;;;;;;;;;11.70;45.70;;;;;;5086918;27;43798;-74
2022/01/27 11:53:56;;;;;;;;;;;12.10;45.50;;;;;;5087151;27;42950;-80
2022/01/27 11:56:35;;;;;;;;;;;12.50;45.20;;;;;;5083152;27;43054;-76
2022/01/27 11:59:05;;;;;;;;;;;12.70;44.10;;;;;;5075526;28;43305;-76
2022/01/27 12:01:33;;;;;;;;;;;13.00;43.70;;;;;;5074575;27;43704;-75
2022/01/27 12:04:02;;;;;;;;;;;13.10;43.70;;;;;;5076807;28;42959;-76
2022/01/27 12:06:28;;;;;;;;;;;13.20;43.30;;;;;;5076862;28;43027;-76
2022/01/27 12:09:13;;;;;;;;;;;13.30;43.40;;;;;;5075758;28;42979;-76
2022/01/27 12:11:50;;;;;;;;;;;13.50;43.20;;;;;;5099717;27;44844;-75
2022/01/27 12:14:18;;;;;;;;;;;13.50;42.80;;;;;;5076820;28;43066;-79
2022/01/27 12:19:15;;;;;;;;;;;13.60;43.00;;;;;;5073389;27;43025;-80
2022/01/27 12:21:45;;;;;;;;;;;13.70;43.10;;;;;;5076125;28;43597;-81
2022/01/27 12:24:14;;;;;;;;;;;13.80;43.00;;;;;;5081308;28;43016;-79
2022/01/27 12:26:49;;;;;;;;;;;13.70;42.90;;;;;;5085470;27;43385;-75
2022/01/27 12:29:20;;;;;;;;;;;13.90;42.80;;;;;;5085390;28;42992;-77
2022/01/27 12:31:46;;;;;;;;;;;13.80;42.80;;;;;;5085791;28;42857;-80
2022/01/27 12:34:12;;;;;;;;;;;13.80;42.80;;;;;;5085537;27;42906;-82
2022/01/27 12:36:38;;;;;;;;;;;13.80;42.80;;;;;;5066357;27;45301;-81
2022/01/27 12:39:03;;;;;;;;;;;13.80;42.80;;;;;;5064672;28;42942;-79
2022/01/27 12:41:35;;;;;;;;;;;13.80;42.90;;;;;;5064500;28;43872;-79
2022/01/27 12:44:10;;;;;;;;;;;13.90;42.80;;;;;;5064691;28;43201;-80
2022/01/27 12:46:36;;;;;;;;;;;13.90;42.80;;;;;;5065281;28;43456;-81
2022/01/27 12:49:03;;;;;;;;;;;13.90;42.80;;;;;;5064688;28;43097;-81
2022/01/27 12:51:46;;;;;;;;;;;14.40;43.40;;;;;;5065066;28;43467;-81
2022/01/27 12:54:14;;;;;;;;;;;14.00;42.90;;;;;;5064724;28;42866;-80
2022/01/27 12:56:39;;;;;;;;;;;14.00;42.80;;;;;;5064303;28;43027;-82
2022/01/27 12:59:12;;;;;;;;;;;14.00;43.00;;;;;;5063217;28;42875;-81
2022/01/27 13:01:37;;;;;;;;;;;14.10;42.80;;;;;;5063562;28;43897;-80
2022/01/27 13:04:03;;;;;;;;;;;14.10;43.50;;;;;;5064034;28;42945;-81
2022/01/27 13:06:30;;;;;;;;;;;14.10;42.90;;;;;;5066830;28;43694;-80
2022/01/27 13:09:11;;;;;;;;;;;14.10;43.20;;;;;;5074797;28;43099;-80
2022/01/27 13:11:39;;;;;;;;;;;10.70;41.00;;;;;;5075122;27;43433;-77
2022/01/27 13:14:08;;;;;;;;;;;13.90;43.50;;;;;;5074837;28;43047;-75
2022/01/27 13:16:46;;;;;;;;;;;14.20;42.80;;;;;;5072991;28;43991;-77
2022/01/27 13:19:23;;;;;;;;;;;14.20;42.70;;;;;;5073547;27;42949;-74
2022/01/27 13:21:59;;;;;;;;;;;14.30;43.20;;;;;;5073062;27;43122;-75
2022/01/27 13:24:26;;;;;;;;;;;14.20;42.80;;;;;;5075592;28;43029;-75
2022/01/27 13:27:02;;;;;;;;;;;14.40;43.40;;;;;;5075959;28;42861;-75
2022/01/27 13:29:37;;;;;;;;;;;14.40;43.00;;;;;;5075008;28;43008;-75
2022/01/27 13:32:06;;;;;;;;;;;14.30;43.00;;;;;;5072918;28;43719;-80
2022/01/27 13:34:32;;;;;;;;;;;14.40;42.90;;;;;;5072965;28;44064;-76
2022/01/27 13:36:58;;;;;;;;;;;14.40;43.20;;;;;;5074912;27;43047;-76
2022/01/27 13:39:36;;;;;;;;;;;14.40;43.10;;;;;;5072595;28;43090;-74
2022/01/27 13:42:08;;;;;;;;;;;14.40;43.40;;;;;;5076278;28;43032;-76
2022/01/27 13:44:33;;;;;;;;;;;14.40;42.80;;;;;;5084618;28;43010;-75
2022/01/27 13:47:03;;;;;;;;;;;14.50;43.50;;;;;;5083381;28;44963;-76
2022/01/27 13:49:31;;;;;;;;;;;14.50;43.80;;;;;;5084373;27;42857;-78
2022/01/27 13:52:10;;;;;;;;;;;14.50;42.70;;;;;;5084855;27;43026;-76
2022/01/27 13:54:39;;;;;;;;;;;14.50;42.70;;;;;;5078406;27;42930;-76
2022/01/27 13:57:08;;;;;;;;;;;14.20;42.70;;;;;;5074565;27;43230;-73
2022/01/27 14:00:35;;;;;;;;;;;14.40;42.80;;;;;;5073664;28;42892;-76
2022/01/27 14:02:35;;;;;;;;;;;14.50;42.80;;;;;;5074167;27;43745;-77
2022/01/27 14:05:14;;;;;;;;;;;14.60;43.10;;;;;;5084627;28;42970;-76
2022/01/27 14:07:48;;;;;;;;;;;14.60;42.80;;;;;;5087968;27;42887;-76
2022/01/27 14:10:18;;;;;;;;;;;14.60;42.80;;;;;;5087286;27;42947;-76
2022/01/27 14:12:46;;;;;;;;;;;14.60;42.90;;;;;;5087457;27;43578;-77
2022/01/27 14:15:30;;;;;;;;;;;14.60;42.80;;;;;;5088496;28;42970;-76
2022/01/27 14:17:57;;;;;;;;;;;14.60;42.80;;;;;;5083996;27;43549;-78
2022/01/27 14:20:23;;;;;;;;;;;14.70;43.10;;;;;;5077809;28;42946;-79
2022/01/27 14:23:00;;;;;;;;;;;14.70;42.80;;;;;;5076553;27;43710;-80
2022/01/27 14:25:35;;;;;;;;;;;14.70;43.00;;;;;;5068755;28;43092;-76
2022/01/27 14:28:01;;;;;;;;;;;14.70;42.90;;;;;;5084655;27;43439;-76
2022/01/27 14:30:26;;;;;;;;;;;14.70;43.40;;;;;;5087780;27;43070;-77
2022/01/27 14:32:52;;;;;;;;;;;14.70;42.90;;;;;;5087677;27;43911;-76
2022/01/27 14:35:19;;;;;;;;;;;14.70;43.00;;;;;;5086189;28;42992;-77
2022/01/27 14:37:44;;;;;;;;;;;14.70;42.80;;;;;;5087610;27;43612;-76
2022/01/27 14:40:12;;;;;;;;;;;14.80;43.10;;;;;;5087591;27;42923;-76
2022/01/27 14:42:38;;;;;;;;;;;14.80;42.80;;;;;;5081817;27;43613;-76
2022/01/27 14:45:06;;;;;;;;;;;14.80;42.80;;;;;;5082512;27;42983;-78
2022/01/27 14:47:32;;;;;;;;;;;14.80;42.80;;;;;;5074538;27;42937;-78
2022/01/27 14:49:57;;;;;;;;;;;14.80;43.00;;;;;;5080402;27;42810;-75
2022/01/27 14:52:27;;;;;;;;;;;14.80;42.90;;;;;;5087436;27;44173;-77
2022/01/27 14:54:53;;;;;;;;;;;14.90;43.90;;;;;;5087766;27;43008;-76
2022/01/27 14:57:19;;;;;;;;;;;14.90;43.20;;;;;;5087102;27;43264;-76
2022/01/27 14:59:45;;;;;;;;;;;14.90;44.40;;;;;;5085554;27;43076;-76
2022/01/27 15:02:10;;;;;;;;;;;14.90;43.90;;;;;;5087684;28;43337;-77
2022/01/27 15:04:36;;;;;;;;;;;14.90;43.80;;;;;;5086931;28;43031;-76
2022/01/27 15:07:02;;;;;;;;;;;14.50;43.80;;;;;;5087508;28;42965;-78
2022/01/27 15:09:27;;;;;;;;;;;14.90;43.60;;;;;;5086793;28;42882;-77
2022/01/27 15:11:53;;;;;;;;;;;14.90;43.70;;;;;;5087377;27;43331;-75
2022/01/27 15:19:47;;;;;;;;;;;15.00;43.60;;;;;;5086864;28;42816;-77
2022/01/27 15:22:13;;;;;;;;;;;15.00;43.70;;;;;;5087059;28;43463;-77
2022/01/27 15:24:40;;;;;;;;;;;15.00;43.70;;;;;;5081177;27;42959;-78